Time;durP1;ratioP1;P1;durP2;ratioP2;P2;SDS_P1;SDS_P2;PMS_P1;PMS_P2;Temp;Humidity;BMP_temperature;BMP_pressure;BME280_temperature;BME280_humidity;BME280_pressure;Samples;Min_cycle;Max_cycle;Signal;HPM_P1;HPM_P2
2023/04/01 00:01:36;;;;;;;0.93;0.70;;;;;;;9.69;70.86;94409.63;6220800;23;20236;-87
2023/04/01 00:04:03;;;;;;;0.93;0.63;;;;;;;9.67;71.18;94411.59;6222067;23;20178;-88
2023/04/01 00:06:29;;;;;;;1.53;0.70;;;;;;;9.61;70.99;94407.25;6222741;23;20173;-86
2023/04/01 00:08:56;;;;;;;1.10;0.60;;;;;;;9.47;71.57;94400.53;6220426;23;20315;-87
2023/04/01 00:11:22;;;;;;;0.63;0.60;;;;;;;9.37;72.33;94404.50;6220867;23;20640;-87
2023/04/01 00:13:56;;;;;;;1.53;0.80;;;;;;;9.39;72.10;94382.78;6221433;23;20201;-87
2023/04/01 00:16:22;;;;;;;0.53;0.50;;;;;;;9.43;71.59;94386.50;6222038;23;20166;-87
2023/04/01 00:18:50;;;;;;;0.73;0.60;;;;;;;9.35;71.71;94384.16;6220943;23;20257;-86
2023/04/01 00:21:21;;;;;;;2.60;0.80;;;;;;;9.35;71.77;94386.72;6220116;23;20202;-87
2023/04/01 00:23:48;;;;;;;1.00;0.70;;;;;;;9.32;72.10;94380.19;6220719;23;20568;-87
2023/04/01 00:26:18;;;;;;;2.33;0.70;;;;;;;9.36;72.11;94385.72;6220076;23;20659;-87
2023/04/01 00:28:45;;;;;;;1.87;1.27;;;;;;;9.35;72.18;94389.28;6220820;23;20181;-87
2023/04/01 00:31:13;;;;;;;1.23;0.70;;;;;;;9.41;71.92;94372.31;6219941;23;20465;-88
2023/04/01 00:33:42;;;;;;;0.70;0.70;;;;;;;9.39;71.86;94376.84;6221797;23;20178;-88
2023/04/01 00:36:10;;;;;;;0.80;0.70;;;;;;;9.48;71.62;94366.16;6222807;23;20188;-86
2023/04/01 00:38:38;;;;;;;1.10;0.70;;;;;;;9.52;71.66;94369.13;6222198;23;20184;-87
2023/04/01 00:41:07;;;;;;;1.20;0.80;;;;;;;9.38;71.76;94376.06;6222255;23;20251;-88
2023/04/01 00:43:35;;;;;;;1.87;0.80;;;;;;;9.42;72.09;94376.44;6222189;23;20182;-86
2023/04/01 00:46:03;;;;;;;1.17;0.60;;;;;;;9.39;71.85;94369.94;6221834;23;20649;-86
2023/04/01 00:48:34;;;;;;;1.70;0.87;;;;;;;9.45;72.00;94370.88;6221441;23;20182;-86
2023/04/01 00:51:07;;;;;;;1.70;0.77;;;;;;;9.44;72.19;94377.81;6222678;23;20556;-87
2023/04/01 00:53:37;;;;;;;2.53;0.70;;;;;;;9.38;72.04;94381.19;6221908;23;20154;-86
2023/04/01 00:56:08;;;;;;;2.23;0.67;;;;;;;9.39;72.01;94377.63;6220400;23;20221;-88
2023/04/01 00:58:40;;;;;;;0.67;0.50;;;;;;;9.43;71.69;94378.78;6220466;23;20224;-88
2023/04/01 01:01:09;;;;;;;1.23;0.87;;;;;;;9.53;71.71;94366.34;6219784;23;20209;-87
2023/04/01 01:03:37;;;;;;;1.17;0.70;;;;;;;9.53;71.52;94360.41;6220040;23;20239;-86
2023/04/01 01:06:12;;;;;;;1.13;0.67;;;;;;;9.56;71.11;94371.09;6220182;23;20182;-87
2023/04/01 01:09:00;;;;;;;1.40;0.90;;;;;;;9.64;70.97;94370.06;6220644;23;20162;-88
2023/04/01 01:11:38;;;;;;;2.33;0.80;;;;;;;9.51;70.93;94381.16;6220278;23;20221;-87
2023/04/01 01:14:13;;;;;;;1.70;0.70;;;;;;;9.55;70.71;94374.66;6219987;23;20161;-87
2023/04/01 01:16:48;;;;;;;0.77;0.60;;;;;;;9.58;70.52;94379.41;6221341;23;20351;-87
2023/04/01 01:19:37;;;;;;;1.83;0.90;;;;;;;9.61;70.96;94376.44;6220088;23;20673;-87
2023/04/01 01:22:23;;;;;;;1.83;0.80;;;;;;;9.54;71.13;94374.84;6195722;23;20206;-87
2023/04/01 01:25:06;;;;;;;1.93;0.83;;;;;;;9.57;70.91;94364.97;6190014;23;20169;-87
2023/04/01 01:27:41;;;;;;;2.47;0.87;;;;;;;9.68;70.38;94372.06;6190124;23;20174;-86
2023/04/01 01:30:29;;;;;;;1.00;0.80;;;;;;;9.60;70.48;94369.72;6189823;23;20159;-86
2023/04/01 01:33:21;;;;;;;0.87;0.70;;;;;;;9.67;70.51;94375.63;6160048;23;20490;-87
2023/04/01 01:35:53;;;;;;;1.43;0.90;;;;;;;9.67;70.17;94372.25;6145944;23;20206;-86
2023/04/01 01:38:23;;;;;;;2.07;0.77;;;;;;;9.71;70.34;94373.44;6157728;23;20223;-87
2023/04/01 01:40:54;;;;;;;1.47;0.80;;;;;;;9.69;70.13;94368.50;6160427;23;20226;-87
2023/04/01 01:43:24;;;;;;;2.07;0.80;;;;;;;9.72;70.06;94353.66;6160847;23;20174;-86
2023/04/01 01:45:55;;;;;;;2.23;1.10;;;;;;;9.70;70.19;94359.78;6161361;23;20280;-86
2023/04/01 01:48:23;;;;;;;1.70;0.70;;;;;;;9.64;69.77;94362.38;6163205;23;20159;-86
2023/04/01 01:50:52;;;;;;;1.73;1.00;;;;;;;9.62;70.51;94354.09;6162218;23;20195;-86
2023/04/01 01:53:19;;;;;;;1.33;0.60;;;;;;;9.58;70.31;94356.28;6163894;23;20179;-88
2023/04/01 01:55:48;;;;;;;1.27;0.60;;;;;;;9.69;69.96;94365.13;6161995;23;20210;-87
2023/04/01 01:58:19;;;;;;;1.80;0.63;;;;;;;9.66;69.80;94370.66;6163161;23;20182;-87
2023/04/01 02:00:51;;;;;;;1.20;0.63;;;;;;;9.65;69.94;94362.16;6162153;23;20262;-88
2023/04/01 02:03:21;;;;;;;0.67;0.43;;;;;;;9.63;69.68;94369.28;6162905;23;20175;-87
2023/04/01 02:05:49;;;;;;;2.07;0.70;;;;;;;9.64;69.82;94362.38;6161880;23;20179;-87
2023/04/01 02:08:23;;;;;;;0.77;0.50;;;;;;;9.63;69.59;94377.00;6161957;23;20175;-86
2023/04/01 02:10:56;;;;;;;2.00;0.60;;;;;;;9.65;69.48;94369.09;6161051;23;20199;-88
2023/04/01 02:13:28;;;;;;;1.20;0.60;;;;;;;9.64;69.61;94368.28;6161324;23;20163;-86
2023/04/01 02:15:57;;;;;;;0.90;0.77;;;;;;;9.63;69.22;94374.41;6161290;23;20175;-87
2023/04/01 02:18:24;;;;;;;0.80;0.60;;;;;;;9.55;69.43;94372.09;6161796;23;20175;-86
2023/04/01 02:20:51;;;;;;;0.70;0.60;;;;;;;9.61;69.47;94376.44;6159942;23;20263;-86
2023/04/01 02:23:19;;;;;;;1.27;0.60;;;;;;;9.60;69.11;94364.56;6159218;23;20167;-86
2023/04/01 02:25:47;;;;;;;0.97;0.67;;;;;;;9.65;69.27;94371.66;6159522;23;20562;-86
2023/04/01 02:28:16;;;;;;;0.97;0.60;;;;;;;9.56;69.59;94368.53;6161215;23;20204;-88
2023/04/01 02:30:45;;;;;;;1.07;0.57;;;;;;;9.55;69.13;94374.66;6160389;23;20181;-87
2023/04/01 02:33:12;;;;;;;1.03;0.70;;;;;;;9.57;69.15;94375.25;6161012;23;20175;-87
2023/04/01 02:35:38;;;;;;;0.53;0.43;;;;;;;9.64;69.17;94386.28;6161064;23;20257;-86
2023/04/01 02:38:06;;;;;;;0.40;0.40;;;;;;;9.66;68.80;94386.09;6161377;23;20179;-86
2023/04/01 02:40:45;;;;;;;0.40;0.40;;;;;;;9.56;69.07;94385.72;6160147;23;20666;-86
2023/04/01 02:43:11;;;;;;;0.60;0.60;;;;;;;9.57;69.40;94392.44;6159034;23;20214;-86
2023/04/01 02:45:38;;;;;;;0.50;0.43;;;;;;;9.52;69.11;94390.47;6158621;23;20178;-87
2023/04/01 02:48:05;;;;;;;0.70;0.70;;;;;;;9.54;69.13;94387.69;6158678;23;20186;-86
2023/04/01 02:50:32;;;;;;;1.03;0.70;;;;;;;9.66;69.13;94374.03;6158390;23;20203;-87
2023/04/01 02:52:58;;;;;;;0.50;0.50;;;;;;;9.68;68.96;94384.13;6159477;23;20175;-86
2023/04/01 02:55:25;;;;;;;0.60;0.60;;;;;;;9.51;69.01;94388.88;6157889;23;20175;-86
2023/04/01 02:57:52;;;;;;;0.83;0.50;;;;;;;9.53;69.16;94384.34;6159522;23;20178;-87
2023/04/01 03:00:19;;;;;;;0.43;0.40;;;;;;;9.59;68.98;94393.03;6157858;23;20199;-86
2023/04/01 03:02:45;;;;;;;0.90;0.50;;;;;;;9.52;69.13;94395.59;6158905;23;20206;-87
2023/04/01 03:05:12;;;;;;;0.43;0.43;;;;;;;9.46;69.01;94393.03;6160425;23;20179;-87
2023/04/01 03:07:39;;;;;;;0.47;0.47;;;;;;;9.46;69.29;94393.03;6158806;23;20206;-86
2023/04/01 03:10:06;;;;;;;0.30;0.30;;;;;;;9.57;68.70;94393.22;6159346;23;20183;-87
2023/04/01 03:12:33;;;;;;;0.47;0.40;;;;;;;9.54;69.11;94403.09;6158369;23;20198;-88
2023/04/01 03:15:00;;;;;;;0.77;0.40;;;;;;;9.45;69.21;94394.00;6158734;23;20222;-87
2023/04/01 03:17:27;;;;;;;0.50;0.50;;;;;;;9.48;69.31;94399.56;6158158;23;20179;-86
2023/04/01 03:19:53;;;;;;;0.77;0.47;;;;;;;9.55;68.57;94395.22;6159785;23;20175;-87
2023/04/01 03:22:20;;;;;;;0.53;0.53;;;;;;;9.52;68.55;94397.38;6158027;23;20199;-88
2023/04/01 03:24:47;;;;;;;0.30;0.30;;;;;;;9.39;69.22;94389.69;6158117;23;20178;-88
2023/04/01 03:27:13;;;;;;;0.40;0.40;;;;;;;9.34;69.57;94392.84;6158348;23;20179;-86
2023/04/01 03:29:40;;;;;;;1.13;0.50;;;;;;;9.35;69.30;94399.56;6157028;23;20496;-87
2023/04/01 03:32:07;;;;;;;0.87;0.40;;;;;;;9.40;68.96;94398.97;6157749;23;20202;-87
2023/04/01 03:34:34;;;;;;;0.40;0.40;;;;;;;9.31;69.03;94400.94;6157895;23;20179;-86
2023/04/01 03:37:00;;;;;;;0.37;0.37;;;;;;;9.37;69.34;94407.06;6158112;23;20221;-87
2023/04/01 03:39:27;;;;;;;0.50;0.50;;;;;;;9.40;68.76;94401.53;6157675;23;20186;-87
2023/04/01 03:41:53;;;;;;;0.57;0.30;;;;;;;9.32;68.97;94400.75;6159599;23;20578;-87
2023/04/01 03:44:20;;;;;;;1.07;0.40;;;;;;;9.37;68.94;94404.50;6159183;23;20263;-86
2023/04/01 03:46:46;;;;;;;0.53;0.40;;;;;;;9.26;69.37;94406.66;6159798;23;20183;-85
2023/04/01 03:49:14;;;;;;;0.90;0.50;;;;;;;9.23;69.47;94409.66;6158447;23;20179;-86
2023/04/01 03:51:42;;;;;;;0.50;0.50;;;;;;;9.12;70.36;94409.41;6158244;23;20198;-86
2023/04/01 03:54:09;;;;;;;0.53;0.40;;;;;;;9.11;70.40;94411.19;6158467;23;20189;-86
2023/04/01 03:56:35;;;;;;;1.13;0.40;;;;;;;9.24;70.43;94418.91;6158386;23;20179;-86
2023/04/01 03:59:04;;;;;;;1.07;0.43;;;;;;;9.38;69.67;94408.66;6157632;23;20183;-86
2023/04/01 04:01:30;;;;;;;0.87;0.50;;;;;;;9.29;70.06;94408.03;6156952;23;20199;-85
2023/04/01 04:03:57;;;;;;;0.53;0.50;;;;;;;9.26;70.07;94416.94;6158437;23;20186;-86
2023/04/01 04:06:29;;;;;;;0.67;0.53;;;;;;;9.20;70.53;94416.94;6157654;23;20185;-87
2023/04/01 04:08:55;;;;;;;0.40;0.40;;;;;;;9.18;70.95;94417.13;6158100;23;20163;-85
2023/04/01 04:11:22;;;;;;;1.90;0.50;;;;;;;9.22;70.86;94422.69;6158457;23;20195;-86
2023/04/01 04:13:49;;;;;;;0.43;0.43;;;;;;;9.24;70.77;94418.91;6158533;23;20617;-86
2023/04/01 04:16:17;;;;;;;0.60;0.60;;;;;;;9.36;70.19;94424.25;6158464;23;20667;-86
2023/04/01 04:18:43;;;;;;;1.07;0.40;;;;;;;9.38;70.52;94429.19;6159979;23;20175;-86
2023/04/01 04:21:13;;;;;;;0.47;0.47;;;;;;;9.49;69.98;94424.25;6158530;23;20222;-86
2023/04/01 04:23:41;;;;;;;0.67;0.53;;;;;;;9.44;70.34;94425.81;6159449;23;20225;-87
2023/04/01 04:26:10;;;;;;;1.30;0.60;;;;;;;9.24;71.48;94424.03;6158694;23;20179;-85
2023/04/01 04:28:36;;;;;;;0.90;0.60;;;;;;;9.28;71.27;94414.97;6159434;23;20183;-87
2023/04/01 04:31:04;;;;;;;1.07;0.60;;;;;;;9.34;71.38;94421.09;6159802;23;20201;-86
2023/04/01 04:33:31;;;;;;;1.50;0.57;;;;;;;9.31;70.94;94421.47;6159187;23;20238;-85
2023/04/01 04:35:58;;;;;;;0.57;0.50;;;;;;;9.24;71.73;94418.09;6159106;23;20175;-86
2023/04/01 04:38:25;;;;;;;0.40;0.40;;;;;;;9.20;71.80;94429.78;6160825;23;20182;-86
2023/04/01 04:40:53;;;;;;;1.30;0.73;;;;;;;9.22;71.59;94423.47;6160384;23;20202;-87
2023/04/01 04:43:20;;;;;;;1.07;0.60;;;;;;;9.26;71.36;94432.34;6159942;23;20234;-86
2023/04/01 04:45:46;;;;;;;0.90;0.60;;;;;;;9.28;71.34;94427.78;6159163;23;20206;-86
2023/04/01 04:48:18;;;;;;;0.67;0.50;;;;;;;9.24;71.17;94434.31;6159525;23;20539;-87
2023/04/01 04:50:45;;;;;;;1.03;0.60;;;;;;;9.33;70.70;94443.41;6159546;23;20159;-85
2023/04/01 04:53:11;;;;;;;0.80;0.60;;;;;;;9.38;71.05;94442.84;6159059;23;20237;-86
2023/04/01 04:55:38;;;;;;;1.70;0.60;;;;;;;9.47;70.64;94444.22;6158179;23;20202;-86
2023/04/01 04:58:05;;;;;;;1.07;0.60;;;;;;;9.41;70.50;94447.59;6156407;23;20182;-86
2023/04/01 05:00:32;;;;;;;1.07;0.63;;;;;;;9.39;70.42;94438.50;6153577;23;20221;-85
2023/04/01 05:02:58;;;;;;;1.63;0.80;;;;;;;9.49;70.22;94449.94;6157309;23;20186;-86
2023/04/01 05:05:24;;;;;;;0.67;0.50;;;;;;;9.58;69.93;94450.56;6156716;23;20566;-85
2023/04/01 05:07:51;;;;;;;2.17;0.70;;;;;;;9.58;69.57;94447.97;6157192;23;20182;-85
2023/04/01 05:10:17;;;;;;;0.93;0.60;;;;;;;9.52;69.12;94453.91;6156743;23;20186;-86
2023/04/01 05:12:44;;;;;;;0.60;0.60;;;;;;;9.54;69.01;94441.66;6156332;23;20257;-87
2023/04/01 05:15:12;;;;;;;1.77;0.63;;;;;;;9.49;68.65;94433.75;6157518;23;20179;-85
2023/04/01 05:17:38;;;;;;;0.87;0.60;;;;;;;9.50;68.52;94435.31;6157960;23;20568;-86
2023/04/01 05:20:06;;;;;;;1.13;0.70;;;;;;;9.56;68.51;94449.94;6156645;23;20554;-87
2023/04/01 05:22:33;;;;;;;0.73;0.50;;;;;;;9.49;68.38;94431.97;6156392;23;20199;-86
2023/04/01 05:24:59;;;;;;;0.83;0.60;;;;;;;9.51;68.06;94440.25;6158592;23;20662;-86
2023/04/01 05:27:26;;;;;;;1.70;0.60;;;;;;;9.48;68.13;94434.72;6158645;23;20175;-85
2023/04/01 05:29:52;;;;;;;1.87;0.60;;;;;;;9.50;68.15;94437.88;6157993;23;20179;-85
2023/04/01 05:32:20;;;;;;;0.70;0.50;;;;;;;9.51;67.89;94435.13;6155783;23;20242;-85
2023/04/01 05:34:46;;;;;;;1.60;0.50;;;;;;;9.48;67.73;94443.22;6157072;23;20183;-85
2023/04/01 05:37:12;;;;;;;0.40;0.40;;;;;;;9.60;67.56;94426.25;6157559;23;20175;-86
2023/04/01 05:39:39;;;;;;;1.17;0.50;;;;;;;9.69;67.06;94435.31;6157313;23;20183;-85
2023/04/01 05:42:07;;;;;;;1.10;0.73;;;;;;;9.71;66.74;94445.41;6156309;23;20920;-87
2023/04/01 05:44:34;;;;;;;0.77;0.60;;;;;;;9.67;66.73;94437.28;6157124;23;20178;-86
2023/04/01 05:47:00;;;;;;;1.07;0.60;;;;;;;9.73;66.68;94430.56;6156947;23;20194;-86
2023/04/01 05:49:28;;;;;;;0.67;0.60;;;;;;;9.79;65.91;94434.91;6156427;23;20193;-85
2023/04/01 05:51:54;;;;;;;1.07;0.60;;;;;;;9.73;66.27;94438.28;6154821;23;20242;-85
2023/04/01 05:54:21;;;;;;;1.53;0.63;;;;;;;9.76;66.13;94432.75;6155327;23;20178;-85
2023/04/01 05:56:48;;;;;;;0.93;0.70;;;;;;;9.67;66.10;94437.28;6155581;23;20182;-86
2023/04/01 05:59:14;;;;;;;1.23;0.60;;;;;;;9.62;66.14;94439.66;6155376;23;20225;-86
2023/04/01 06:01:41;;;;;;;0.70;0.70;;;;;;;9.81;66.34;94429.59;6154161;23;20209;-85
2023/04/01 06:04:07;;;;;;;0.70;0.50;;;;;;;9.71;65.55;94442.81;6156252;23;20182;-85
2023/04/01 06:06:36;;;;;;;1.30;0.80;;;;;;;9.80;65.58;94446.00;6156877;23;20557;-86
2023/04/01 06:09:11;;;;;;;1.17;0.80;;;;;;;9.82;65.24;94431.94;6156058;23;20179;-85
2023/04/01 06:11:47;;;;;;;0.90;0.80;;;;;;;9.84;65.33;94437.66;6155321;23;20202;-87
2023/04/01 06:14:28;;;;;;;1.20;0.90;;;;;;;9.90;64.44;94433.50;6155679;23;20173;-86
2023/04/01 06:17:06;;;;;;;1.83;0.80;;;;;;;9.90;64.83;94436.09;6156212;23;20516;-86
2023/04/01 06:19:41;;;;;;;2.23;0.80;;;;;;;9.79;64.36;94437.50;6155370;23;20163;-87
2023/04/01 06:22:36;;;;;;;1.90;0.87;;;;;;;9.85;64.42;94436.69;6154595;23;20198;-86
2023/04/01 06:25:33;;;;;;;1.30;0.67;;;;;;;9.84;64.18;94437.66;6154760;23;20163;-86
2023/04/01 06:28:28;;;;;;;0.70;0.50;;;;;;;9.82;64.10;94438.84;6156181;23;20717;-87
2023/04/01 06:31:03;;;;;;;1.40;1.13;;;;;;;9.88;63.66;94431.13;6160719;23;20566;-86
2023/04/01 06:33:47;;;;;;;2.13;0.73;;;;;;;9.94;63.43;94429.56;6158973;23;20655;-86
2023/04/01 06:36:26;;;;;;;0.87;0.60;;;;;;;10.08;62.93;94438.03;6154792;23;20225;-85
2023/04/01 06:39:07;;;;;;;1.33;0.70;;;;;;;10.15;62.50;94436.25;6158936;23;20169;-86
2023/04/01 06:42:06;;;;;;;1.33;0.83;;;;;;;10.19;62.11;94443.38;6158618;23;20226;-86
2023/04/01 06:44:43;;;;;;;2.17;0.90;;;;;;;10.32;61.48;94427.13;6070792;23;20179;-87
2023/04/01 06:47:25;;;;;;;0.87;0.60;;;;;;;10.42;60.99;94435.19;6155850;23;20170;-86
2023/04/01 06:50:01;;;;;;;0.83;0.70;;;;;;;10.30;60.89;94432.47;6156783;23;20167;-87
2023/04/01 06:52:37;;;;;;;1.73;0.80;;;;;;;10.50;60.73;94452.97;6156749;23;20190;-86
2023/04/01 06:55:21;;;;;;;0.90;0.70;;;;;;;10.65;59.97;94452.72;6157459;23;20538;-87
2023/04/01 06:57:52;;;;;;;1.60;0.70;;;;;;;10.63;59.89;94467.56;6161127;23;20163;-86
2023/04/01 07:00:27;;;;;;;1.53;0.83;;;;;;;10.58;59.96;94452.72;6156721;23;20179;-85
2023/04/01 07:03:00;;;;;;;1.47;0.70;;;;;;;10.78;59.45;94444.94;6154572;23;20245;-87
2023/04/01 07:05:32;;;;;;;0.80;0.60;;;;;;;10.78;59.00;94450.06;6155011;23;20214;-86
2023/04/01 07:08:02;;;;;;;1.97;0.97;;;;;;;10.58;59.16;94452.72;6155198;23;20159;-86
2023/04/01 07:10:37;;;;;;;1.63;0.50;;;;;;;10.52;59.72;94463.88;6155622;23;20159;-87
2023/04/01 07:13:06;;;;;;;1.93;0.70;;;;;;;10.46;59.49;94461.31;6156121;23;20186;-86
2023/04/01 07:15:38;;;;;;;1.10;0.67;;;;;;;10.53;59.90;94450.00;6155960;23;20229;-86
2023/04/01 07:18:13;;;;;;;0.70;0.70;;;;;;;10.57;59.82;94458.91;6157249;23;20167;-86
2023/04/01 07:20:39;;;;;;;1.07;0.60;;;;;;;10.88;59.02;94449.66;6155325;23;20165;-86
2023/04/01 07:23:11;;;;;;;1.20;1.00;;;;;;;11.07;58.40;94448.75;6126893;23;20387;-87
2023/04/01 07:25:42;;;;;;;0.90;0.73;;;;;;;11.19;57.55;94449.66;6127812;23;20168;-86
2023/04/01 07:28:14;;;;;;;1.67;0.70;;;;;;;11.32;57.02;94449.59;6127892;23;20174;-86
2023/04/01 07:30:48;;;;;;;1.10;0.90;;;;;;;11.33;57.31;94443.44;6126355;23;20695;-86
2023/04/01 07:33:20;;;;;;;1.03;0.80;;;;;;;11.05;57.55;94450.75;6127904;23;20164;-87
2023/04/01 07:35:53;;;;;;;0.93;0.60;;;;;;;11.18;57.58;94445.50;6127942;23;20163;-86
2023/04/01 07:38:27;;;;;;;1.40;0.70;;;;;;;11.43;57.14;94454.06;6127602;23;20170;-86
2023/04/01 07:41:04;;;;;;;1.87;0.80;;;;;;;11.64;57.03;94459.88;6127299;23;20160;-86
2023/04/01 07:43:44;;;;;;;1.80;0.70;;;;;;;11.52;56.75;94456.41;6130367;23;20180;-85
2023/04/01 07:46:22;;;;;;;1.13;0.60;;;;;;;11.36;56.93;94448.16;6132977;23;20163;-86
2023/04/01 07:48:57;;;;;;;1.20;0.60;;;;;;;11.47;56.93;94446.72;6134353;23;20535;-86
2023/04/01 07:51:29;;;;;;;1.87;0.60;;;;;;;11.54;56.91;94452.63;6131829;23;20199;-85
2023/04/01 07:54:07;;;;;;;0.93;0.57;;;;;;;11.44;56.48;94460.00;6130971;23;20623;-85
2023/04/01 07:56:45;;;;;;;0.87;0.60;;;;;;;11.41;57.11;94452.69;6130865;23;20170;-85
2023/04/01 07:59:20;;;;;;;0.90;0.80;;;;;;;11.44;56.89;94465.16;6129161;23;20163;-85
2023/04/01 08:01:54;;;;;;;0.60;0.60;;;;;;;11.49;56.42;94460.19;6129037;23;20726;-85
2023/04/01 08:04:33;;;;;;;0.60;0.60;;;;;;;11.36;56.21;94471.34;6130168;23;20235;-86
2023/04/01 08:07:07;;;;;;;0.70;0.70;;;;;;;11.22;56.78;94454.41;6129988;23;20164;-85
2023/04/01 08:09:44;;;;;;;0.77;0.40;;;;;;;11.24;56.61;94464.50;6127375;23;20167;-86
2023/04/01 08:12:24;;;;;;;3.10;2.27;;;;;;;11.28;56.38;94470.81;6129874;23;20195;-87
2023/04/01 08:14:59;;;;;;;1.70;0.80;;;;;;;11.29;56.71;94454.38;6128388;23;20571;-86
2023/04/01 08:17:33;;;;;;;0.53;0.50;;;;;;;11.25;55.86;94455.78;6129994;23;20619;-86
2023/04/01 08:20:15;;;;;;;0.70;0.70;;;;;;;11.29;56.45;94457.75;6131233;23;20164;-87
2023/04/01 08:22:43;;;;;;;1.00;0.60;;;;;;;11.31;56.06;94465.25;6156153;23;20209;-85
2023/04/01 08:25:18;;;;;;;0.67;0.50;;;;;;;11.36;55.82;94461.03;6160679;23;20179;-85
2023/04/01 08:27:49;;;;;;;0.60;0.60;;;;;;;11.64;55.13;94467.59;6159941;23;20162;-86
2023/04/01 08:30:20;;;;;;;1.30;0.40;;;;;;;12.05;54.66;94457.56;6160875;23;20163;-88
2023/04/01 08:32:52;;;;;;;0.50;0.50;;;;;;;12.37;53.28;94452.25;6158965;23;20229;-85
2023/04/01 08:35:27;;;;;;;1.80;0.63;;;;;;;12.60;52.90;94443.88;6157691;23;20632;-85
2023/04/01 08:37:57;;;;;;;0.50;0.50;;;;;;;12.61;52.34;94453.19;6155903;23;20159;-86
2023/04/01 08:40:56;;;;;;;0.60;0.60;;;;;;;12.47;52.13;94451.78;6155834;23;20566;-84
2023/04/01 08:43:39;;;;;;;0.60;0.60;;;;;;;12.42;52.46;94442.09;6156503;23;20186;-87
2023/04/01 08:46:45;;;;;;;0.67;0.50;;;;;;;12.27;52.36;94442.47;6160030;23;20163;-86
2023/04/01 08:49:27;;;;;;;0.50;0.50;;;;;;;12.37;52.51;94437.56;6158607;23;20160;-86
2023/04/01 08:52:10;;;;;;;1.53;0.70;;;;;;;12.38;52.23;94449.47;6157663;23;20702;-87
2023/04/01 08:54:55;;;;;;;1.60;0.60;;;;;;;12.23;52.97;94443.09;6160576;23;20225;-86
2023/04/01 08:57:36;;;;;;;0.43;0.43;;;;;;;12.27;52.39;94432.13;6161093;23;20163;-86
2023/04/01 09:00:19;;;;;;;0.40;0.40;;;;;;;12.44;52.29;94447.84;6161047;23;20546;-87
2023/04/01 09:02:55;;;;;;;0.67;0.50;;;;;;;12.38;52.06;94446.09;6158500;23;20690;-85
2023/04/01 09:05:39;;;;;;;0.53;0.53;;;;;;;12.60;51.76;94433.53;6159020;23;20159;-86
2023/04/01 09:08:18;;;;;;;0.50;0.50;;;;;;;12.68;51.68;94426.31;6159308;23;20551;-86
2023/04/01 09:11:05;;;;;;;0.50;0.50;;;;;;;12.80;50.90;94434.88;6159356;23;20167;-86
2023/04/01 09:13:52;;;;;;;0.73;0.60;;;;;;;12.84;51.55;94417.16;6158023;23;20159;-86
2023/04/01 09:16:36;;;;;;;0.30;0.30;;;;;;;13.19;50.88;94425.06;6159980;23;20225;-86
2023/04/01 09:19:15;;;;;;;0.40;0.40;;;;;;;13.12;50.85;94426.91;6158938;23;20167;-86
2023/04/01 09:22:06;;;;;;;0.53;0.50;;;;;;;12.90;51.93;94428.38;6143931;23;20207;-86
2023/04/01 09:24:45;;;;;;;1.47;0.50;;;;;;;12.61;51.93;94417.84;6130140;23;20177;-87
2023/04/01 09:27:23;;;;;;;0.60;0.50;;;;;;;12.35;52.24;94429.25;6130109;23;20492;-86
2023/04/01 09:30:20;;;;;;;0.50;0.50;;;;;;;12.11;52.29;94427.53;6130496;23;20180;-88
2023/04/01 09:33:07;;;;;;;0.40;0.40;;;;;;;12.24;52.36;94417.06;6133397;23;20521;-85
2023/04/01 09:35:46;;;;;;;0.50;0.50;;;;;;;12.62;51.60;94434.13;6132447;23;20163;-87
2023/04/01 09:38:32;;;;;;;0.40;0.40;;;;;;;12.90;51.43;94405.16;6131969;23;20191;-87
2023/04/01 09:41:06;;;;;;;0.50;0.50;;;;;;;13.16;50.83;94416.94;6130764;23;20199;-87
2023/04/01 09:43:51;;;;;;;0.50;0.50;;;;;;;13.18;50.42;94395.06;6129861;23;20298;-87
2023/04/01 09:46:32;;;;;;;0.50;0.50;;;;;;;13.23;50.00;94408.09;6130322;23;20168;-87
2023/04/01 09:49:27;;;;;;;0.43;0.43;;;;;;;13.35;49.51;94410.69;6130089;23;20550;-87
2023/04/01 09:52:10;;;;;;;0.50;0.50;;;;;;;13.26;49.90;94407.66;6127424;23;20226;-87
2023/04/01 09:54:54;;;;;;;0.60;0.47;;;;;;;13.09;49.24;94414.41;6128619;23;20163;-87
2023/04/01 09:57:43;;;;;;;0.50;0.50;;;;;;;13.05;50.25;94431.41;6127101;23;20164;-86
2023/04/01 10:00:30;;;;;;;0.40;0.40;;;;;;;12.94;49.82;94401.91;6131012;23;20224;-86
2023/04/01 10:03:29;;;;;;;0.40;0.40;;;;;;;12.80;50.68;94401.31;6130357;23;20203;-86
2023/04/01 10:06:48;;;;;;;0.47;0.47;;;;;;;12.97;50.38;94387.78;6129765;23;20164;-86
2023/04/01 10:09:48;;;;;;;0.40;0.40;;;;;;;13.04;50.37;94404.75;6130181;23;20173;-86
2023/04/01 10:13:12;;;;;;;0.43;0.43;;;;;;;12.99;50.43;94396.88;6129992;23;20196;-86
2023/04/01 10:16:10;;;;;;;0.60;0.60;;;;;;;13.03;50.47;94390.28;6128450;23;20670;-86
2023/04/01 10:19:12;;;;;;;0.40;0.40;;;;;;;12.96;50.45;94399.91;6128690;23;20168;-85
2023/04/01 10:22:18;;;;;;;0.40;0.40;;;;;;;13.17;50.29;94388.31;6141500;23;20682;-86
2023/04/01 10:25:14;;;;;;;0.40;0.40;;;;;;;13.28;50.09;94392.69;6155986;23;20155;-86
2023/04/01 10:28:07;;;;;;;0.37;0.37;;;;;;;13.17;50.22;94393.47;6155955;23;20670;-85
2023/04/01 10:31:10;;;;;;;0.50;0.50;;;;;;;13.17;50.19;94393.47;6157777;23;20163;-86
2023/04/01 10:34:15;;;;;;;1.37;0.47;;;;;;;13.06;50.56;94394.22;6158682;23;20174;-86
2023/04/01 10:36:49;;;;;;;0.97;0.50;;;;;;;13.03;50.65;94400.59;6158479;23;20495;-86
2023/04/01 10:39:51;;;;;;;0.77;0.77;;;;;;;13.00;51.30;94402.84;6156289;23;20467;-86
2023/04/01 10:42:42;;;;;;;0.40;0.40;;;;;;;12.81;51.30;94399.50;6159551;23;20196;-87
2023/04/01 10:45:36;;;;;;;0.40;0.40;;;;;;;12.70;52.03;94416.53;6157500;23;20190;-86
2023/04/01 10:48:18;;;;;;;0.40;0.40;;;;;;;12.62;53.30;94416.84;6158826;23;20171;-86
2023/04/01 10:51:11;;;;;;;0.53;0.40;;;;;;;12.56;53.52;94409.94;6159367;23;20167;-86
2023/04/01 10:53:57;;;;;;;0.40;0.40;;;;;;;12.51;54.03;94414.22;6159690;23;20159;-86
2023/04/01 10:56:53;;;;;;;0.50;0.50;;;;;;;12.45;54.07;94421.00;6159316;23;20163;-85
2023/04/01 10:59:56;;;;;;;0.60;0.60;;;;;;;12.35;55.69;94433.63;6159966;23;20163;-86
2023/04/01 11:02:54;;;;;;;0.40;0.40;;;;;;;12.24;56.68;94444.69;6098627;23;20265;-85
2023/04/01 11:05:50;;;;;;;0.30;0.30;;;;;;;12.07;58.69;94439.28;6160223;23;20170;-87
2023/04/01 11:08:54;;;;;;;0.93;0.50;;;;;;;11.85;59.64;94441.47;6159583;23;20163;-85
2023/04/01 11:11:45;;;;;;;1.50;0.40;;;;;;;11.75;61.67;94446.28;6157144;23;20198;-85
2023/04/01 11:14:56;;;;;;;0.30;0.30;;;;;;;11.70;60.89;94435.81;6159008;23;20206;-85
2023/04/01 11:17:43;;;;;;;0.57;0.30;;;;;;;11.55;60.70;94425.81;6157831;23;20170;-85
2023/04/01 11:20:37;;;;;;;0.30;0.30;;;;;;;11.85;61.44;94441.47;6158366;23;20167;-85
2023/04/01 11:23:21;;;;;;;0.30;0.30;;;;;;;11.92;60.62;94431.91;6155978;23;20178;-86
2023/04/01 11:26:16;;;;;;;0.50;0.50;;;;;;;12.26;62.10;94422.03;6156596;23;20194;-84
2023/04/01 11:29:07;;;;;;;2.10;0.70;;;;;;;12.52;63.33;94433.81;6157090;23;20159;-85
2023/04/01 11:31:44;;;;;;;0.43;0.43;;;;;;;12.53;60.75;94449.09;6156689;23;20206;-86
2023/04/01 11:34:29;;;;;;;0.73;0.60;;;;;;;12.63;61.26;94446.03;6155474;23;20159;-84
2023/04/01 11:37:07;;;;;;;0.40;0.40;;;;;;;12.62;60.71;94441.88;6154784;23;20163;-86
2023/04/01 11:39:43;;;;;;;0.83;0.60;;;;;;;12.60;59.92;94449.03;6154971;23;20326;-86
2023/04/01 11:42:21;;;;;;;0.97;0.57;;;;;;;12.58;60.88;94458.78;6155160;23;20206;-86
2023/04/01 11:45:00;;;;;;;2.30;0.50;;;;;;;12.43;60.98;94441.88;6155310;23;20537;-85
2023/04/01 11:47:51;;;;;;;4.10;0.73;;;;;;;12.40;62.04;94468.13;6159104;23;20187;-87
2023/04/01 11:50:27;;;;;;;0.93;0.70;;;;;;;12.35;63.05;94451.69;6159310;23;20163;-86
2023/04/01 11:53:25;;;;;;;0.90;0.50;;;;;;;12.19;62.95;94447.09;6158801;23;20194;-87
2023/04/01 11:56:51;;;;;;;1.37;0.47;;;;;;;12.20;63.85;94474.47;6158085;23;20186;-88
2023/04/01 11:59:48;;;;;;;0.40;0.40;;;;;;;11.96;65.54;94458.03;6157509;23;20268;-86
2023/04/01 12:02:24;;;;;;;0.40;0.30;;;;;;;12.06;66.02;94466.09;6149733;23;20199;-85
2023/04/01 12:05:16;;;;;;;0.50;0.50;;;;;;;12.21;66.57;94468.31;6150333;23;20514;-85
2023/04/01 12:08:03;;;;;;;1.17;0.50;;;;;;;12.24;66.00;94480.81;6150059;23;20623;-84
2023/04/01 12:10:38;;;;;;;2.07;0.50;;;;;;;12.05;67.44;94473.03;6150187;23;20649;-86
2023/04/01 12:13:15;;;;;;;0.50;0.50;;;;;;;12.00;67.78;94470.28;6150833;23;20155;-85
2023/04/01 12:15:58;;;;;;;0.60;0.40;;;;;;;12.02;68.69;94478.63;6150723;23;20162;-85
2023/04/01 12:18:34;;;;;;;2.27;1.30;;;;;;;12.03;67.51;94479.41;6151972;23;20159;-84
2023/04/01 12:21:10;;;;;;;0.50;0.50;;;;;;;12.04;67.61;94478.41;6151349;23;20206;-84